Time;durP1;ratioP1;P1;durP2;ratioP2;P2;SDS_P1;SDS_P2;PMS_P1;PMS_P2;Temp;Humidity;BMP_temperature;BMP_pressure;BME280_temperature;BME280_humidity;BME280_pressure;Samples;Min_cycle;Max_cycle;Signal;HPM_P1;HPM_P2
2023/01/29 12:27:51;;;;;;;7.17;5.50;;;5.20;63.50;;;;;;20983720;27;20589;-72
2023/01/29 12:38:06;;;;;;;6.80;5.23;;;4.20;62.90;;;;;;20920846;28;20681;-73
2023/01/29 12:48:18;;;;;;;8.43;5.83;;;4.50;63.60;;;;;;20897957;28;20213;-74
2023/01/29 12:58:56;;;;;;;7.63;5.30;;;4.60;63.70;;;;;;20894417;28;20240;-73
2023/01/29 13:09:02;;;;;;;7.33;5.37;;;4.80;64.10;;;;;;20840670;28;20255;-74
2023/01/29 13:19:20;;;;;;;7.07;5.07;;;4.90;64.00;;;;;;20893209;28;20721;-72
2023/01/29 13:29:24;;;;;;;7.50;5.00;;;5.10;64.40;;;;;;20891272;28;20210;-75
2023/01/29 13:39:42;;;;;;;7.57;5.10;;;5.20;63.80;;;;;;20838731;28;20236;-75
2023/01/29 13:49:55;;;;;;;8.90;5.67;;;5.30;63.50;;;;;;20838583;28;20212;-78
2023/01/29 13:59:57;;;;;;;7.67;5.40;;;5.20;63.40;;;;;;20839751;28;20242;-82
2023/01/29 14:10:22;;;;;;;6.30;5.20;;;5.20;63.60;;;;;;20839160;28;20208;-76
2023/01/29 14:20:38;;;;;;;8.03;5.73;;;5.30;63.60;;;;;;20829173;28;20237;-76
2023/01/29 14:30:48;;;;;;;7.80;5.50;;;5.30;63.60;;;;;;20837092;28;20214;-77
2023/01/29 14:40:50;;;;;;;7.50;5.63;;;5.40;63.50;;;;;;20835935;28;20241;-72
2023/01/29 14:50:58;;;;;;;37.20;22.03;;;5.60;63.70;;;;;;20835037;28;20239;-76
2023/01/29 15:01:00;;;;;;;7.30;5.50;;;5.40;63.30;;;;;;20834903;28;20648;-76
2023/01/29 15:21:28;;;;;;;8.03;5.77;;;;;;;;;;20831550;28;20252;-69
2023/01/29 15:31:30;;;;;;;9.27;6.53;;;4.30;65.30;;;;;;20831162;28;20610;-67
2023/01/29 15:41:32;;;;;;;7.87;6.17;;;4.20;66.10;;;;;;20831705;28;20244;-69
2023/01/29 15:51:34;;;;;;;9.70;6.37;;;4.00;66.80;;;;;;20834712;28;20208;-77
2023/01/29 16:01:37;;;;;;;8.43;6.10;;;;;;;;;;20830266;28;20247;-77
2023/01/29 16:11:39;;;;;;;10.40;6.57;;;;;;;;;;20830047;28;20675;-76
2023/01/29 16:21:44;;;;;;;13.37;6.63;;;3.60;68.70;;;;;;20792858;28;20293;-79
2023/01/29 16:31:49;;;;;;;11.10;7.33;;;3.50;69.10;;;;;;20753546;28;20201;-69
2023/01/29 16:42:19;;;;;;;11.47;6.90;;;3.40;69.60;;;;;;20827800;28;20228;-75
2023/01/29 16:52:30;;;;;;;12.97;8.30;;;3.20;70.10;;;;;;20827959;28;20213;-73
2023/01/29 17:02:37;;;;;;;13.13;8.27;;;3.10;70.50;;;;;;20828160;28;20235;-72
2023/01/29 17:12:38;;;;;;;12.03;8.27;;;3.10;71.30;;;;;;20840561;28;20203;-70
2023/01/29 17:22:40;;;;;;;12.87;8.00;;;2.90;71.40;;;;;;20842274;28;20240;-71
2023/01/29 17:32:42;;;;;;;12.47;8.33;;;;;;;;;;20841651;28;20661;-70
2023/01/29 17:42:48;;;;;;;14.07;8.70;;;;;;;;;;20840993;28;20229;-73
2023/01/29 17:52:50;;;;;;;14.07;8.70;;;2.70;72.70;;;;;;20817052;28;20260;-72
2023/01/29 18:02:53;;;;;;;15.20;9.47;;;;;;;;;;20828549;28;20235;-72
2023/01/29 18:12:54;;;;;;;14.53;8.77;;;2.60;73.40;;;;;;20785520;28;20212;-72
2023/01/29 18:22:56;;;;;;;18.57;10.03;;;;;;;;;;20782001;28;20252;-75
2023/01/29 18:32:58;;;;;;;24.03;13.80;;;2.40;74.00;;;;;;20835411;28;20216;-69
2023/01/29 18:43:00;;;;;;;23.03;13.90;;;2.30;74.30;;;;;;20832387;28;20232;-68
2023/01/29 18:53:03;;;;;;;28.23;15.23;;;2.40;75.00;;;;;;20834608;28;20730;-71
2023/01/29 19:03:05;;;;;;;24.03;15.17;;;;;;;;;;20835034;28;20289;-71
2023/01/29 19:13:07;;;;;;;26.43;14.27;;;2.00;75.80;;;;;;20834413;28;20209;-71
2023/01/29 19:23:09;;;;;;;24.50;13.37;;;2.10;75.90;;;;;;20833416;28;20294;-73
2023/01/29 19:33:10;;;;;;;20.93;12.30;;;2.10;75.90;;;;;;20832812;28;20619;-76
2023/01/29 19:43:19;;;;;;;32.10;17.53;;;2.10;75.90;;;;;;20828464;28;20635;-76
2023/01/29 19:53:21;;;;;;;31.13;17.30;;;;;;;;;;20828318;28;20260;-76
2023/01/29 20:03:24;;;;;;;29.33;17.23;;;1.90;76.30;;;;;;20828546;28;20279;-72
2023/01/29 20:13:26;;;;;;;27.40;16.30;;;;;;;;;;20827884;28;20209;-73
2023/01/29 20:23:28;;;;;;;24.47;14.83;;;;;;;;;;20821276;28;20237;-75
2023/01/29 20:33:39;;;;;;;32.20;18.77;;;;;;;;;;20825017;28;20208;-75
2023/01/29 20:43:41;;;;;;;25.47;14.00;;;1.50;77.70;;;;;;20833615;28;20648;-74
2023/01/29 20:53:45;;;;;;;21.90;12.80;;;3.50;80.50;;;;;;20842304;28;20253;-72
2023/01/29 21:03:47;;;;;;;32.80;18.53;;;;;;;;;;20841840;28;20236;-75
2023/01/29 21:13:53;;;;;;;32.90;18.83;;;;;;;;;;20840856;28;20213;-73
2023/01/29 21:23:55;;;;;;;28.77;15.83;;;;;;;;;;20839962;28;20318;-71
2023/01/29 21:33:57;;;;;;;27.23;15.60;;;;;;;;;;20839914;28;20536;-71
2023/01/29 21:43:58;;;;;;;29.17;16.43;;;1.20;79.80;;;;;;20838621;28;20237;-71
2023/01/29 22:02:14;;;;;;;29.50;16.67;;;;;;;;;;21065798;27;20586;-72
2023/01/29 22:12:15;;;;;;;27.87;15.97;;;1.10;80.00;;;;;;21064471;28;20208;-72
2023/01/29 22:22:18;;;;;;;21.53;12.50;;;1.10;80.50;;;;;;21055472;28;20214;-71
2023/01/29 22:32:20;;;;;;;20.57;11.63;;;;;;;;;;20978114;28;20213;-70
2023/01/29 22:42:22;;;;;;;17.40;10.70;;;;;;;;;;20978375;28;20682;-70
2023/01/29 22:52:26;;;;;;;17.87;10.63;;;1.30;81.30;;;;;;20977334;28;20211;-70
2023/01/29 23:02:28;;;;;;;15.77;10.30;;;1.30;81.90;;;;;;20977990;28;20206;-70
2023/01/29 23:12:30;;;;;;;16.90;10.50;;;;;;;;;;20928289;28;20261;-71
2023/01/29 23:22:32;;;;;;;18.37;11.10;;;;;;;;;;20929122;28;20296;-71
2023/01/29 23:32:34;;;;;;;18.73;11.30;;;;;;;;;;20919881;28;20602;-71
2023/01/29 23:42:36;;;;;;;20.60;11.93;;;;;;;;;;20921555;28;20208;-71
2023/01/29 23:52:38;;;;;;;17.13;10.77;;;;;;;;;;20920386;28;20243;-71
